createdAt,value
2023-12-29T00:00:11.028Z,51.20
2023-12-29T00:15:59.146Z,47.60
2023-12-29T00:18:27.917Z,48.70
2023-12-29T00:21:06.218Z,47.70
2023-12-29T00:23:36.550Z,48.50
2023-12-29T00:26:05.045Z,48.90
2023-12-29T00:28:33.411Z,47.20
2023-12-29T00:31:04.344Z,46.90
2023-12-29T00:33:34.132Z,44.90
2023-12-29T00:36:02.651Z,45.10
2023-12-29T00:38:32.342Z,45.60
2023-12-29T00:41:00.842Z,44.30
2023-12-29T00:43:29.312Z,44.10
2023-12-29T00:45:57.689Z,40.30
2023-12-29T00:48:27.689Z,38.50
2023-12-29T00:50:56.160Z,37.30
2023-12-29T00:53:24.556Z,37.90
2023-12-29T00:55:52.992Z,40.50
2023-12-29T00:58:21.528Z,43.10
2023-12-29T01:00:51.130Z,44.20
2023-12-29T01:03:22.063Z,46.90
2023-12-29T01:05:52.928Z,46.60
2023-12-29T01:08:21.511Z,45.60
2023-12-29T01:10:49.940Z,46.10
2023-12-29T01:13:18.582Z,46.00
2023-12-29T01:15:47.224Z,44.80
2023-12-29T01:18:15.875Z,44.60
2023-12-29T01:20:44.534Z,43.60
2023-12-29T01:23:15.187Z,44.20
2023-12-29T01:25:43.590Z,44.50
2023-12-29T01:28:12.073Z,45.40
2023-12-29T01:30:40.732Z,45.90
2023-12-29T01:33:09.298Z,44.70
2023-12-29T01:35:38.378Z,43.30
2023-12-29T01:38:06.951Z,45.10
2023-12-29T01:40:45.396Z,44.40
2023-12-29T01:43:13.955Z,43.10
2023-12-29T01:45:49.496Z,44.30
2023-12-29T01:48:25.942Z,43.70
2023-12-29T01:50:55.764Z,44.50
2023-12-29T01:53:34.427Z,44.60
2023-12-29T01:56:10.474Z,44.90
2023-12-29T01:58:39.500Z,44.70
2023-12-29T02:01:10.165Z,45.60
2023-12-29T02:03:39.890Z,45.40
2023-12-29T02:06:10.297Z,46.50
2023-12-29T02:08:39.799Z,46.80
2023-12-29T02:11:09.899Z,47.10
2023-12-29T02:13:38.421Z,48.30
2023-12-29T02:16:12.388Z,49.50
2023-12-29T02:18:43.956Z,49.80
2023-12-29T02:21:12.315Z,50.80
2023-12-29T02:23:40.875Z,52.60
2023-12-29T02:26:17.368Z,53.70
2023-12-29T02:28:55.631Z,54.20
2023-12-29T02:31:29.170Z,54.50
2023-12-29T02:33:58.516Z,54.20
2023-12-29T02:36:27.647Z,55.10
2023-12-29T02:38:56.501Z,55.30
2023-12-29T02:41:27.058Z,56.10
2023-12-29T02:43:55.389Z,55.90
2023-12-29T02:46:23.874Z,56.60
2023-12-29T02:48:52.323Z,57.70
2023-12-29T02:51:20.731Z,59.10
2023-12-29T02:53:50.140Z,59.30
2023-12-29T02:56:18.606Z,58.60
2023-12-29T02:58:49.376Z,57.40
2023-12-29T03:01:17.913Z,56.90
2023-12-29T03:03:46.388Z,59.00
2023-12-29T03:06:14.908Z,59.20
2023-12-29T03:08:43.272Z,60.00
2023-12-29T03:11:11.743Z,60.00
2023-12-29T03:13:40.113Z,60.00
2023-12-29T03:16:09.990Z,59.30
2023-12-29T03:18:41.238Z,59.00
2023-12-29T03:21:09.855Z,59.10
2023-12-29T03:23:38.297Z,59.30
2023-12-29T03:26:06.933Z,59.70
2023-12-29T03:28:35.534Z,60.40
2023-12-29T03:31:04.026Z,60.60
2023-12-29T03:33:34.326Z,60.90
2023-12-29T03:36:02.815Z,61.60
2023-12-29T03:38:31.172Z,59.50
2023-12-29T03:40:59.564Z,60.20
2023-12-29T03:43:27.991Z,60.40
2023-12-29T03:45:56.341Z,60.40
2023-12-29T03:48:24.904Z,59.60
2023-12-29T03:50:54.763Z,58.50
2023-12-29T03:53:23.636Z,59.00
2023-12-29T03:55:53.671Z,59.50
2023-12-29T03:58:22.085Z,58.00
2023-12-29T04:00:50.686Z,58.50
2023-12-29T04:03:19.128Z,57.10
2023-12-29T04:05:47.674Z,54.70
2023-12-29T04:08:17.481Z,54.60
2023-12-29T04:10:45.861Z,55.60
2023-12-29T04:13:14.345Z,54.50
2023-12-29T04:15:42.805Z,55.30
2023-12-29T04:18:11.431Z,55.40
2023-12-29T04:20:40.172Z,55.60
2023-12-29T04:23:10.427Z,55.70
2023-12-29T04:25:40.231Z,55.30
2023-12-29T04:28:09.824Z,54.40
2023-12-29T04:30:38.585Z,55.50
2023-12-29T04:33:07.302Z,56.00
2023-12-29T04:35:35.836Z,56.20
2023-12-29T04:38:04.316Z,56.00
2023-12-29T04:40:32.684Z,55.40
2023-12-29T04:43:02.440Z,55.00
2023-12-29T04:45:31.380Z,54.60
2023-12-29T04:48:00.182Z,55.40
2023-12-29T04:50:28.788Z,55.60
2023-12-29T04:52:57.166Z,54.00
2023-12-29T04:55:25.615Z,55.30
2023-12-29T04:57:54.029Z,53.60
2023-12-29T05:00:23.941Z,54.10
2023-12-29T05:02:52.399Z,54.90
2023-12-29T05:05:20.797Z,54.20
2023-12-29T05:07:49.244Z,54.00
2023-12-29T05:10:17.907Z,55.80
2023-12-29T05:12:46.404Z,54.70
2023-12-29T05:15:14.990Z,55.90
2023-12-29T05:17:45.040Z,57.40
2023-12-29T05:20:14.180Z,57.00
2023-12-29T05:22:42.617Z,56.10
2023-12-29T05:25:11.539Z,55.90
2023-12-29T05:27:40.086Z,56.30
2023-12-29T05:30:09.455Z,56.00
2023-12-29T05:32:38.019Z,57.50
2023-12-29T05:35:08.614Z,57.80
2023-12-29T05:37:37.112Z,58.40
2023-12-29T05:40:06.285Z,58.80
2023-12-29T05:42:34.758Z,59.70
2023-12-29T05:45:03.220Z,59.40
2023-12-29T05:47:32.789Z,60.40
2023-12-29T05:50:01.321Z,60.90
2023-12-29T05:52:31.152Z,61.50
2023-12-29T05:54:59.708Z,62.70
2023-12-29T05:57:28.113Z,62.90
2023-12-29T05:59:56.605Z,63.80
2023-12-29T06:02:25.205Z,64.10
2023-12-29T06:04:53.681Z,64.50
2023-12-29T06:07:22.050Z,65.00
2023-12-29T06:09:51.968Z,65.50
2023-12-29T06:12:20.384Z,65.60
2023-12-29T06:14:48.782Z,66.80
2023-12-29T06:17:17.243Z,67.60
2023-12-29T06:19:45.786Z,67.90
2023-12-29T06:22:15.556Z,68.40
2023-12-29T06:24:44.135Z,68.90
2023-12-29T06:27:14.279Z,68.20
2023-12-29T06:29:44.313Z,68.10
2023-12-29T06:32:13.194Z,67.90
2023-12-29T06:34:42.793Z,68.90
2023-12-29T06:37:11.597Z,70.20
2023-12-29T06:39:41.251Z,71.90
2023-12-29T06:42:09.761Z,73.70
2023-12-29T06:44:39.475Z,75.10
2023-12-29T06:47:08.171Z,74.80
2023-12-29T06:49:37.516Z,74.50
2023-12-29T06:52:05.679Z,74.00
2023-12-29T06:54:34.109Z,73.30
2023-12-29T06:57:02.653Z,73.40
2023-12-29T06:59:30.975Z,73.60
2023-12-29T07:02:00.903Z,73.90
2023-12-29T07:04:29.274Z,72.70
2023-12-29T07:06:58.129Z,72.30
2023-12-29T07:09:26.567Z,72.30
2023-12-29T07:11:54.973Z,72.20
2023-12-29T07:14:23.386Z,72.20
2023-12-29T07:16:51.764Z,72.70
2023-12-29T07:19:23.721Z,73.50
2023-12-29T07:21:52.365Z,73.00
2023-12-29T07:24:20.824Z,73.40
2023-12-29T07:26:49.189Z,72.90
2023-12-29T07:29:17.587Z,73.00
2023-12-29T07:31:46.041Z,72.90
2023-12-29T07:34:14.599Z,72.60
2023-12-29T07:36:44.407Z,72.90
2023-12-29T07:39:12.875Z,72.50
2023-12-29T07:41:43.214Z,72.40
2023-12-29T07:44:13.237Z,71.70
2023-12-29T07:46:42.470Z,71.40
2023-12-29T07:49:11.139Z,71.70
2023-12-29T07:51:44.013Z,71.20
2023-12-29T07:54:12.617Z,71.20
2023-12-29T07:56:41.023Z,71.80
2023-12-29T07:59:09.657Z,72.10
2023-12-29T08:01:39.553Z,72.50
2023-12-29T08:04:09.451Z,73.10
2023-12-29T08:06:40.242Z,73.90
2023-12-29T08:09:10.345Z,74.60
2023-12-29T08:11:38.860Z,74.30
2023-12-29T08:14:09.325Z,74.40
2023-12-29T08:16:41.547Z,74.00
2023-12-29T08:19:11.325Z,72.50
2023-12-29T08:21:40.227Z,72.60
2023-12-29T08:24:10.194Z,71.60
2023-12-29T08:26:47.934Z,72.50
2023-12-29T08:29:16.443Z,72.60
2023-12-29T08:31:45.333Z,72.70
2023-12-29T08:34:14.791Z,73.30
2023-12-29T08:36:43.297Z,73.90
2023-12-29T08:39:13.474Z,74.40
2023-12-29T08:41:41.877Z,75.30
2023-12-29T08:44:10.298Z,75.20
2023-12-29T08:46:38.834Z,75.20
2023-12-29T08:49:07.275Z,76.80
2023-12-29T08:51:35.791Z,78.20
2023-12-29T08:54:04.428Z,78.00
2023-12-29T08:56:34.140Z,77.30
2023-12-29T08:59:02.514Z,76.50
2023-12-29T09:01:30.881Z,76.30
2023-12-29T09:03:59.551Z,75.90
2023-12-29T09:06:27.983Z,75.60
2023-12-29T09:08:56.468Z,76.30
2023-12-29T09:11:24.972Z,77.50
2023-12-29T09:13:54.886Z,75.60
2023-12-29T09:16:23.475Z,74.90
2023-12-29T09:18:52.077Z,74.20
2023-12-29T09:21:20.520Z,73.40
2023-12-29T09:23:50.142Z,72.00
2023-12-29T09:26:18.620Z,70.80
2023-12-29T09:28:47.092Z,71.50
2023-12-29T09:31:17.160Z,71.40
2023-12-29T09:33:45.830Z,71.00
2023-12-29T09:36:14.293Z,71.40
2023-12-29T09:38:47.406Z,71.70
2023-12-29T09:41:17.897Z,72.20
2023-12-29T09:43:50.227Z,72.80
2023-12-29T09:46:24.421Z,72.70
2023-12-29T09:48:54.831Z,72.90
2023-12-29T09:51:25.377Z,73.50
2023-12-29T09:53:54.267Z,71.10
2023-12-29T09:56:22.858Z,70.80
2023-12-29T09:58:52.135Z,69.50
2023-12-29T10:01:24.274Z,68.40
2023-12-29T10:03:52.907Z,67.90
2023-12-29T10:06:25.761Z,68.50
2023-12-29T10:08:55.723Z,68.20
2023-12-29T10:11:25.234Z,69.40
2023-12-29T10:13:58.050Z,69.40
2023-12-29T10:16:33.593Z,70.90
2023-12-29T10:19:12.747Z,71.80
2023-12-29T10:21:50.961Z,72.50
2023-12-29T10:24:21.681Z,72.20
2023-12-29T10:26:50.779Z,71.50
2023-12-29T10:29:21.922Z,70.50
2023-12-29T10:31:52.352Z,72.70
2023-12-29T10:34:21.258Z,73.40
2023-12-29T10:36:50.612Z,75.20
2023-12-29T10:39:19.087Z,74.70
2023-12-29T10:41:47.487Z,78.10
2023-12-29T10:44:15.845Z,81.10
2023-12-29T10:46:44.264Z,83.50
2023-12-29T10:52:34.883Z,87.00
2023-12-29T10:55:11.307Z,87.30
2023-12-29T10:57:41.949Z,87.20
2023-12-29T11:00:13.715Z,88.50
2023-12-29T11:02:42.622Z,86.60
2023-12-29T11:05:12.462Z,83.00
2023-12-29T11:07:42.084Z,81.50
2023-12-29T11:10:11.892Z,76.50
2023-12-29T11:12:40.834Z,75.90
2023-12-29T11:15:11.470Z,74.70
2023-12-29T11:17:40.015Z,74.50
2023-12-29T11:20:08.977Z,75.30
2023-12-29T11:22:38.773Z,75.00
2023-12-29T11:25:09.862Z,75.40
2023-12-29T11:27:38.512Z,74.50
2023-12-29T11:30:09.386Z,73.90
2023-12-29T11:32:45.206Z,73.90
2023-12-29T11:35:18.603Z,75.80
2023-12-29T11:38:18.017Z,74.00
2023-12-29T11:40:52.725Z,74.50
2023-12-29T11:43:22.104Z,73.60
2023-12-29T11:45:50.546Z,71.50
2023-12-29T11:48:56.250Z,70.20
2023-12-29T11:51:35.202Z,70.50
2023-12-29T11:54:06.695Z,68.50
2023-12-29T11:56:37.700Z,68.90
2023-12-29T11:59:16.745Z,67.70
2023-12-29T12:01:45.987Z,69.20
2023-12-29T12:04:36.697Z,66.00
2023-12-29T12:07:06.491Z,66.60
2023-12-29T12:09:37.163Z,66.10
2023-12-29T12:12:06.730Z,66.80
2023-12-29T12:14:48.939Z,68.10
2023-12-29T12:17:33.579Z,66.90
2023-12-29T12:20:05.096Z,68.30
2023-12-29T12:22:37.525Z,68.00
2023-12-29T12:25:10.539Z,69.60
2023-12-29T12:27:40.785Z,68.80
2023-12-29T12:30:11.988Z,70.30
2023-12-29T12:32:40.811Z,69.60
2023-12-29T12:35:20.214Z,68.50
2023-12-29T12:37:49.546Z,69.60
2023-12-29T12:40:29.619Z,68.10
2023-12-29T12:42:58.212Z,67.50
2023-12-29T12:45:30.033Z,68.70
2023-12-29T12:48:05.159Z,68.00
2023-12-29T12:50:33.754Z,69.10
2023-12-29T12:53:04.905Z,69.80
2023-12-29T12:55:37.032Z,69.80
2023-12-29T12:58:06.555Z,68.70
2023-12-29T13:00:35.144Z,69.80
2023-12-29T13:03:04.075Z,70.50
2023-12-29T13:05:32.879Z,71.60
2023-12-29T13:08:02.870Z,72.20
2023-12-29T13:10:31.458Z,71.90
2023-12-29T13:13:01.497Z,70.90
2023-12-29T13:15:31.265Z,71.60
2023-12-29T13:17:59.803Z,71.50
2023-12-29T13:20:28.246Z,71.20
2023-12-29T13:22:56.545Z,70.70
2023-12-29T13:25:29.187Z,71.60
2023-12-29T13:27:59.559Z,73.90
2023-12-29T13:30:29.807Z,74.60
2023-12-29T13:32:58.649Z,75.00
2023-12-29T13:35:33.799Z,75.00
2023-12-29T13:38:09.654Z,75.40
2023-12-29T13:40:43.576Z,78.20
2023-12-29T13:43:14.409Z,79.50
2023-12-29T13:45:44.943Z,82.70
2023-12-29T13:48:15.857Z,81.80
2023-12-29T13:50:48.389Z,82.20
2023-12-29T13:53:19.870Z,83.00
2023-12-29T13:55:48.308Z,82.40
2023-12-29T13:58:17.787Z,81.50
2023-12-29T14:00:56.038Z,79.40
2023-12-29T14:03:29.283Z,77.70
2023-12-29T14:06:02.053Z,77.60
2023-12-29T14:08:36.185Z,75.70
2023-12-29T14:11:10.044Z,75.50
2023-12-29T14:13:43.481Z,74.50
2023-12-29T14:16:16.584Z,74.80
2023-12-29T14:18:56.672Z,74.70
2023-12-29T14:21:26.191Z,71.90
2023-12-29T14:24:11.714Z,72.70
2023-12-29T14:26:41.665Z,71.20
2023-12-29T14:29:11.426Z,71.10
2023-12-29T14:31:42.570Z,71.70
2023-12-29T14:34:11.759Z,71.90
2023-12-29T14:36:41.491Z,72.60
2023-12-29T14:39:11.475Z,73.50
2023-12-29T14:41:40.161Z,76.80
2023-12-29T14:44:08.457Z,78.40
2023-12-29T14:46:38.206Z,80.50
2023-12-29T14:49:09.169Z,82.60
2023-12-29T14:51:38.244Z,84.30
2023-12-29T14:54:07.161Z,84.50
2023-12-29T14:56:35.636Z,86.50
2023-12-29T14:59:06.361Z,87.00
2023-12-29T15:01:35.569Z,88.50
2023-12-29T15:04:05.518Z,90.00
2023-12-29T15:06:35.362Z,92.30
2023-12-29T15:09:04.221Z,94.30
2023-12-29T15:11:32.583Z,95.90
2023-12-29T15:14:01.008Z,97.80
2023-12-29T15:16:29.376Z,99.70
2023-12-29T15:18:57.780Z,99.90
2023-12-29T15:21:26.112Z,99.90
2023-12-29T15:23:55.942Z,99.90
2023-12-29T15:26:24.300Z,99.90
2023-12-29T15:28:53.493Z,99.90
2023-12-29T15:31:22.081Z,99.90
2023-12-29T15:33:50.620Z,99.90
2023-12-29T15:36:22.035Z,99.90
2023-12-29T15:38:50.547Z,99.90
2023-12-29T15:41:20.669Z,99.90
2023-12-29T15:43:50.715Z,99.90
2023-12-29T15:46:23.462Z,99.90
2023-12-29T15:48:52.039Z,99.90
2023-12-29T15:51:20.450Z,99.90
2023-12-29T15:53:48.713Z,99.90
2023-12-29T15:56:21.453Z,99.90
2023-12-29T15:58:49.939Z,99.90
2023-12-29T16:01:27.840Z,99.90
2023-12-29T16:03:56.496Z,99.90
2023-12-29T16:06:26.100Z,99.90
2023-12-29T16:08:55.530Z,99.70
2023-12-29T16:11:27.064Z,98.70
2023-12-29T16:13:56.198Z,98.40
2023-12-29T16:16:28.650Z,97.30
2023-12-29T16:18:57.025Z,96.30
2023-12-29T16:21:25.603Z,95.60
2023-12-29T16:23:54.007Z,94.20
2023-12-29T16:26:31.073Z,93.00
2023-12-29T16:29:05.540Z,91.90
2023-12-29T16:31:34.954Z,90.40
2023-12-29T16:34:03.567Z,90.30
2023-12-29T16:36:32.310Z,90.30
2023-12-29T16:39:00.752Z,90.30
2023-12-29T16:41:29.096Z,89.40
2023-12-29T16:43:57.832Z,89.20
2023-12-29T16:46:27.634Z,88.70
2023-12-29T16:48:55.982Z,89.00
2023-12-29T16:51:24.346Z,89.20
2023-12-29T16:53:52.673Z,88.80
2023-12-29T16:56:21.013Z,88.30
2023-12-29T16:58:49.461Z,89.20
2023-12-29T17:01:19.069Z,89.40
2023-12-29T17:03:49.376Z,90.80
2023-12-29T17:06:17.733Z,91.80
2023-12-29T17:08:46.056Z,93.30
2023-12-29T17:11:14.440Z,95.00
2023-12-29T17:13:42.948Z,95.50
2023-12-29T17:16:13.049Z,98.10
2023-12-29T17:18:42.359Z,99.40
2023-12-29T17:21:13.523Z,99.90
2023-12-29T17:23:42.240Z,99.90
2023-12-29T17:26:15.652Z,99.90
2023-12-29T17:28:43.996Z,99.90
2023-12-29T17:31:13.156Z,99.90
2023-12-29T17:33:41.782Z,99.90
2023-12-29T17:36:12.203Z,99.90
2023-12-29T17:38:43.071Z,99.90
2023-12-29T17:41:12.413Z,99.90
2023-12-29T17:43:41.387Z,99.90
2023-12-29T17:46:10.665Z,99.90
2023-12-29T17:48:39.146Z,99.90
2023-12-29T17:51:09.522Z,99.90
2023-12-29T17:53:39.406Z,99.90
2023-12-29T17:56:08.631Z,99.90
2023-12-29T17:58:38.381Z,99.90
2023-12-29T18:01:06.866Z,99.90
2023-12-29T18:03:35.394Z,99.90
2023-12-29T18:06:07.676Z,99.90
2023-12-29T18:08:36.100Z,99.90
2023-12-29T18:11:07.516Z,99.90
2023-12-29T18:13:36.924Z,99.90
2023-12-29T18:16:11.942Z,99.90
2023-12-29T18:18:43.496Z,99.90
2023-12-29T18:21:17.235Z,99.90
2023-12-29T18:23:46.462Z,99.90
2023-12-29T18:26:16.552Z,99.90
2023-12-29T18:28:45.276Z,99.90
2023-12-29T18:31:14.407Z,99.90
2023-12-29T18:33:44.116Z,99.90
2023-12-29T18:36:12.753Z,99.90
2023-12-29T18:38:41.208Z,99.90
2023-12-29T18:41:10.643Z,99.90
2023-12-29T18:43:40.454Z,99.90
2023-12-29T18:46:10.326Z,99.90
2023-12-29T18:48:41.037Z,99.90
2023-12-29T18:51:09.485Z,99.90
2023-12-29T18:53:37.993Z,99.90
2023-12-29T18:56:09.930Z,99.90
2023-12-29T18:58:39.965Z,99.90
2023-12-29T19:01:08.374Z,99.90
2023-12-29T19:03:37.089Z,99.90
2023-12-29T19:06:06.493Z,99.90
2023-12-29T19:08:36.010Z,99.90
2023-12-29T19:11:04.570Z,99.90
2023-12-29T19:13:33.170Z,99.90
2023-12-29T19:16:03.750Z,99.90
2023-12-29T19:18:32.401Z,99.90
2023-12-29T19:21:00.873Z,99.90
2023-12-29T19:23:29.661Z,99.90
2023-12-29T19:25:58.049Z,99.90
2023-12-29T19:28:27.214Z,99.90
2023-12-29T19:30:56.165Z,99.90
2023-12-29T19:33:26.974Z,99.90
2023-12-29T19:35:55.750Z,99.90
2023-12-29T19:38:24.289Z,99.90
2023-12-29T19:40:53.882Z,99.90
2023-12-29T19:43:22.321Z,99.90
2023-12-29T19:45:50.977Z,99.90
2023-12-29T19:48:19.423Z,99.90
2023-12-29T19:50:49.235Z,99.90
2023-12-29T19:53:20.288Z,99.90
2023-12-29T19:55:49.981Z,99.90
2023-12-29T19:58:18.360Z,99.90
2023-12-29T20:00:47.466Z,99.90
2023-12-29T20:03:16.084Z,99.90
2023-12-29T20:05:45.139Z,99.90
2023-12-29T20:08:15.242Z,99.90
2023-12-29T20:10:43.694Z,99.90
2023-12-29T20:13:12.596Z,99.90
2023-12-29T20:15:40.164Z,99.90
2023-12-29T20:18:08.938Z,99.90
2023-12-29T20:20:38.358Z,99.90
2023-12-29T20:23:07.799Z,99.90
2023-12-29T20:25:38.933Z,99.90
2023-12-29T20:28:07.640Z,99.90
2023-12-29T20:30:36.758Z,99.90
2023-12-29T20:33:07.394Z,99.90
2023-12-29T20:35:37.966Z,99.90
2023-12-29T20:38:06.395Z,99.90
2023-12-29T20:40:36.225Z,99.90
2023-12-29T20:43:05.081Z,99.90
2023-12-29T20:45:35.046Z,99.90
2023-12-29T20:48:03.414Z,99.90
2023-12-29T20:50:31.950Z,99.90
2023-12-29T20:53:00.634Z,99.90
2023-12-29T20:55:29.301Z,99.90
2023-12-29T20:57:59.619Z,99.90
2023-12-29T21:00:28.149Z,99.90
2023-12-29T21:02:56.537Z,99.90
2023-12-29T21:05:24.882Z,99.90
2023-12-29T21:07:53.285Z,99.90
2023-12-29T21:10:22.188Z,99.90
2023-12-29T21:12:50.571Z,99.90
2023-12-29T21:15:20.332Z,99.90
2023-12-29T21:17:49.135Z,99.90
2023-12-29T21:20:17.677Z,99.90
2023-12-29T21:22:47.966Z,99.90
2023-12-29T21:25:16.794Z,99.90
2023-12-29T21:27:45.258Z,99.90
2023-12-29T21:30:13.966Z,99.90
2023-12-29T21:32:45.420Z,99.90
2023-12-29T21:35:14.077Z,99.90
2023-12-29T21:37:42.545Z,99.90
2023-12-29T21:40:11.590Z,99.90
2023-12-29T21:42:40.077Z,99.90
2023-12-29T21:45:11.445Z,99.90
2023-12-29T21:47:42.547Z,99.90
2023-12-29T21:50:13.015Z,99.90
2023-12-29T21:52:41.843Z,99.90
2023-12-29T21:55:10.285Z,99.90
2023-12-29T21:57:38.939Z,99.90
2023-12-29T22:00:08.668Z,99.90
2023-12-29T22:02:39.463Z,99.90
2023-12-29T22:05:09.096Z,99.90
2023-12-29T22:07:41.474Z,99.90
2023-12-29T22:10:12.064Z,99.90
2023-12-29T22:12:40.465Z,99.90
2023-12-29T22:15:10.143Z,99.90
2023-12-29T22:17:39.955Z,99.90
2023-12-29T22:20:10.024Z,99.90
2023-12-29T22:22:42.494Z,99.90
2023-12-29T22:25:11.868Z,99.90
2023-12-29T22:27:40.614Z,99.90
2023-12-29T22:30:13.093Z,99.90
2023-12-29T22:32:42.206Z,99.90
2023-12-29T22:35:11.067Z,99.90
2023-12-29T22:37:40.918Z,99.90
2023-12-29T22:40:10.402Z,99.90
2023-12-29T22:42:42.087Z,99.90
2023-12-29T22:45:13.646Z,99.90
2023-12-29T22:47:42.239Z,99.90
2023-12-29T22:50:11.001Z,99.90
2023-12-29T22:52:40.740Z,99.90
2023-12-29T22:55:09.621Z,99.90
2023-12-29T22:57:38.670Z,99.90
2023-12-29T23:00:10.838Z,99.90
2023-12-29T23:02:39.805Z,99.90
2023-12-29T23:05:08.567Z,99.90
2023-12-29T23:07:38.757Z,99.90
2023-12-29T23:10:11.448Z,99.90
2023-12-29T23:12:40.647Z,99.90
2023-12-29T23:15:10.706Z,99.90
2023-12-29T23:17:39.563Z,99.90
2023-12-29T23:20:09.982Z,99.90
2023-12-29T23:22:38.744Z,99.90
2023-12-29T23:25:09.278Z,99.90
2023-12-29T23:27:37.874Z,99.90
2023-12-29T23:30:07.702Z,99.90
2023-12-29T23:32:37.140Z,99.90
2023-12-29T23:35:14.162Z,99.90
2023-12-29T23:37:48.474Z,99.90
2023-12-29T23:40:18.156Z,99.90
2023-12-29T23:42:46.763Z,99.90
2023-12-29T23:45:15.270Z,99.90
2023-12-29T23:47:44.833Z,99.90
2023-12-29T23:50:13.963Z,99.90
2023-12-29T23:52:42.242Z,99.90
2023-12-29T23:55:10.717Z,99.90
2023-12-29T23:57:40.559Z,99.90
